createdAt,value
2022-10-11T00:01:41.291Z,102599.47
2022-10-11T00:04:07.889Z,102601.22
2022-10-11T00:06:34.459Z,102606.41
2022-10-11T00:09:00.875Z,102609.00
2022-10-11T00:11:27.353Z,102600.38
2022-10-11T00:13:53.736Z,102605.59
2022-10-11T00:16:20.307Z,102606.47
2022-10-11T00:18:46.789Z,102602.16
2022-10-11T00:21:14.731Z,102599.59
2022-10-11T00:23:42.370Z,102596.16
2022-10-11T00:26:10.914Z,102600.50
2022-10-11T00:28:38.066Z,102603.97
2022-10-11T00:31:10.401Z,102606.56
2022-10-11T00:33:36.853Z,102612.59
2022-10-11T00:36:04.164Z,102610.00
2022-10-11T00:38:32.104Z,102613.50
2022-10-11T00:40:59.992Z,102608.34
2022-10-11T00:43:28.696Z,102612.66
2022-10-11T00:45:58.218Z,102619.56
2022-10-11T00:48:30.822Z,102619.56
2022-10-11T00:50:59.751Z,102622.16
2022-10-11T00:53:28.334Z,102633.34
2022-10-11T00:56:03.188Z,102637.69
2022-10-11T00:58:30.698Z,102634.22
2022-10-11T01:00:57.917Z,102635.09
2022-10-11T01:03:26.796Z,102637.72
2022-10-11T01:05:53.523Z,102638.56
2022-10-11T01:08:20.788Z,102638.59
2022-10-11T01:10:47.646Z,102649.81
2022-10-11T01:13:26.317Z,102641.19
2022-10-11T01:16:08.562Z,102648.13
2022-10-11T01:18:38.848Z,102650.66
2022-10-11T01:21:21.602Z,102651.56
2022-10-11T01:24:38.188Z,102648.13
2022-10-11T01:27:38.362Z,102650.72
2022-10-11T01:30:21.246Z,102649.00
2022-10-11T01:32:56.009Z,102652.50
2022-10-11T01:35:36.954Z,102661.09
2022-10-11T01:38:34.175Z,102658.53
2022-10-11T01:41:16.294Z,102661.09
2022-10-11T01:43:44.075Z,102658.53
2022-10-11T01:46:11.700Z,102654.25
2022-10-11T01:48:52.790Z,102655.13
2022-10-11T01:51:28.328Z,102654.25
2022-10-11T01:54:11.454Z,102656.88
2022-10-11T01:56:56.708Z,102660.31
2022-10-11T01:59:28.522Z,102662.06
2022-10-11T02:02:03.356Z,102661.16
2022-10-11T02:04:55.158Z,102665.47
2022-10-11T02:08:02.496Z,102662.06
2022-10-11T02:10:28.875Z,102667.22
2022-10-11T02:13:01.926Z,102667.22
2022-10-11T02:15:31.629Z,102666.38
2022-10-11T02:18:02.025Z,102668.09
2022-10-11T02:20:31.964Z,102672.41
2022-10-11T02:23:07.490Z,102661.19
2022-10-11T02:25:36.176Z,102661.22
2022-10-11T02:28:07.248Z,102665.53
2022-10-11T02:30:35.795Z,102667.25
2022-10-11T02:33:05.648Z,102667.28
2022-10-11T02:35:38.427Z,102668.13
2022-10-11T02:38:17.734Z,102678.47
2022-10-11T02:40:48.423Z,102672.44
2022-10-11T02:43:25.096Z,102675.03
2022-10-11T02:45:56.551Z,102681.06
2022-10-11T02:48:25.216Z,102673.31
2022-10-11T02:50:53.530Z,102679.34
2022-10-11T02:53:21.814Z,102675.91
2022-10-11T02:55:50.286Z,102684.53
2022-10-11T02:58:16.769Z,102688.84
2022-10-11T03:00:43.819Z,102686.25
2022-10-11T03:03:10.269Z,102680.22
2022-10-11T03:05:40.674Z,102684.53
2022-10-11T03:08:12.230Z,102685.38
2022-10-11T03:10:39.948Z,102687.97
2022-10-11T03:13:06.707Z,102684.53
2022-10-11T03:15:33.251Z,102688.81
2022-10-11T03:17:59.863Z,102683.66
2022-10-11T03:20:26.575Z,102689.69
2022-10-11T03:22:53.111Z,102687.13
2022-10-11T03:25:19.632Z,102686.25
2022-10-11T03:27:46.041Z,102688.84
2022-10-11T03:30:17.321Z,102687.97
2022-10-11T03:32:44.586Z,102680.22
2022-10-11T03:35:11.032Z,102688.84
2022-10-11T03:37:37.551Z,102692.28
2022-10-11T03:40:06.017Z,102694.03
2022-10-11T03:42:32.480Z,102687.13
2022-10-11T03:44:59.967Z,102697.44
2022-10-11T03:47:26.363Z,102700.03
2022-10-11T03:49:53.195Z,102704.34
2022-10-11T03:52:19.604Z,102712.09
2022-10-11T03:54:46.027Z,102715.56
2022-10-11T03:57:12.520Z,102712.09
2022-10-11T03:59:38.913Z,102721.59
2022-10-11T04:02:05.338Z,102717.25
2022-10-11T04:04:31.916Z,102718.13
2022-10-11T04:06:58.372Z,102714.72
2022-10-11T04:09:24.783Z,102711.25
2022-10-11T04:11:51.224Z,102720.72
2022-10-11T04:14:17.673Z,102720.72
2022-10-11T04:16:44.118Z,102720.72
2022-10-11T04:19:10.562Z,102719.00
2022-10-11T04:21:37.153Z,102724.16
2022-10-11T04:24:04.102Z,102720.75
2022-10-11T04:26:30.605Z,102731.91
2022-10-11T04:28:57.180Z,102737.94
2022-10-11T04:31:23.922Z,102733.63
2022-10-11T04:33:50.472Z,102735.34
2022-10-11T04:36:16.959Z,102743.94
2022-10-11T04:38:43.366Z,102739.69
2022-10-11T04:41:12.509Z,102741.38
2022-10-11T04:43:39.557Z,102747.41
2022-10-11T04:46:07.106Z,102747.41
2022-10-11T04:48:33.986Z,102750.00
2022-10-11T04:51:00.458Z,102752.59
2022-10-11T04:53:26.883Z,102755.13
2022-10-11T04:56:02.748Z,102758.59
2022-10-11T04:58:30.841Z,102754.31
2022-10-11T05:00:58.013Z,102759.47
2022-10-11T05:03:25.371Z,102757.72
2022-10-11T05:05:52.843Z,102756.03
2022-10-11T05:08:19.747Z,102756.88
2022-10-11T05:11:06.218Z,102755.16
2022-10-11T05:13:34.302Z,102758.63
2022-10-11T05:16:01.571Z,102765.47
2022-10-11T05:18:28.795Z,102759.44
2022-10-11T05:21:01.053Z,102759.47
2022-10-11T05:23:29.293Z,102766.34
2022-10-11T05:25:55.829Z,102769.78
2022-10-11T05:28:22.545Z,102763.78
2022-10-11T05:30:49.025Z,102768.06
2022-10-11T05:33:15.932Z,102772.34
2022-10-11T05:35:42.704Z,102770.66
2022-10-11T05:38:09.196Z,102773.25
2022-10-11T05:40:37.154Z,102776.66
2022-10-11T05:43:04.326Z,102774.94
2022-10-11T05:45:32.900Z,102778.41
2022-10-11T05:47:59.637Z,102778.41
2022-10-11T05:50:26.077Z,102775.81
2022-10-11T05:52:52.487Z,102789.59
2022-10-11T05:55:18.930Z,102787.84
2022-10-11T05:57:45.408Z,102779.25
2022-10-11T06:00:12.215Z,102793.88
2022-10-11T06:02:38.865Z,102793.88
2022-10-11T06:05:05.646Z,102796.47
2022-10-11T06:07:32.547Z,102801.63
2022-10-11T06:09:59.098Z,102799.06
2022-10-11T06:12:25.498Z,102803.34
2022-10-11T06:14:51.890Z,102800.78
2022-10-11T06:17:18.418Z,102800.78
2022-10-11T06:19:44.845Z,102801.66
2022-10-11T06:22:12.421Z,102806.78
2022-10-11T06:24:38.907Z,102805.06
2022-10-11T06:27:05.382Z,102806.81
2022-10-11T06:29:31.831Z,102809.38
2022-10-11T06:31:58.571Z,102817.13
2022-10-11T06:34:25.079Z,102821.44
2022-10-11T06:36:51.883Z,102818.88
2022-10-11T06:39:18.410Z,102817.13
2022-10-11T06:41:44.902Z,102820.59
2022-10-11T06:44:14.274Z,102824.88
2022-10-11T06:46:41.259Z,102824.00
2022-10-11T06:49:07.957Z,102823.16
2022-10-11T06:51:35.705Z,102832.63
2022-10-11T06:54:02.434Z,102835.22
2022-10-11T06:56:31.213Z,102832.63
2022-10-11T06:58:59.324Z,102830.91
2022-10-11T07:01:27.176Z,102838.66
2022-10-11T07:03:55.670Z,102838.66
2022-10-11T07:06:25.318Z,102849.00
2022-10-11T07:08:52.777Z,102843.81
2022-10-11T07:11:22.645Z,102847.25
2022-10-11T07:13:55.047Z,102849.84
2022-10-11T07:16:22.623Z,102844.66
2022-10-11T07:18:57.243Z,102852.41
2022-10-11T07:21:27.351Z,102854.97
2022-10-11T07:23:53.737Z,102852.38
2022-10-11T07:26:20.225Z,102855.81
2022-10-11T07:28:47.238Z,102859.25
2022-10-11T07:31:16.963Z,102857.53
2022-10-11T07:33:43.577Z,102858.38
2022-10-11T07:36:11.371Z,102858.38
2022-10-11T07:38:42.512Z,102860.91
2022-10-11T07:41:09.643Z,102861.75
2022-10-11T07:43:37.335Z,102859.16
2022-10-11T07:46:05.371Z,102858.25
2022-10-11T07:48:34.086Z,102866.88
2022-10-11T07:51:07.856Z,102865.13
2022-10-11T07:53:45.943Z,102862.50
2022-10-11T07:56:14.866Z,102867.66
2022-10-11T07:58:42.525Z,102871.09
2022-10-11T08:01:10.353Z,102876.28
2022-10-11T08:03:38.077Z,102875.38
2022-10-11T08:06:07.792Z,102875.38
2022-10-11T08:08:34.987Z,102878.78
2022-10-11T08:11:01.837Z,102886.50
2022-10-11T08:13:28.749Z,102885.56
2022-10-11T08:15:55.466Z,102887.19
2022-10-11T08:18:21.988Z,102890.53
2022-10-11T08:20:48.835Z,102899.06
2022-10-11T08:23:17.037Z,102892.88
2022-10-11T08:25:46.613Z,102892.75
2022-10-11T08:28:16.952Z,102897.78
2022-10-11T08:30:51.291Z,102897.59
2022-10-11T08:33:19.232Z,102888.75
2022-10-11T08:35:45.974Z,102891.19
2022-10-11T08:38:12.748Z,102895.34
2022-10-11T08:40:49.390Z,102902.25
2022-10-11T08:43:29.373Z,102903.19
2022-10-11T08:45:59.797Z,102907.53
2022-10-11T08:48:32.592Z,102910.09
2022-10-11T08:50:59.603Z,102909.94
2022-10-11T08:53:51.558Z,102911.44
2022-10-11T08:56:20.188Z,102908.63
2022-10-11T08:58:53.972Z,102913.66
2022-10-11T09:01:25.889Z,102921.19
2022-10-11T09:03:53.284Z,102907.06
2022-10-11T09:06:34.818Z,102906.88
2022-10-11T09:09:07.594Z,102914.38
2022-10-11T09:11:40.110Z,102905.50
2022-10-11T09:14:12.441Z,102909.56
2022-10-11T09:16:54.198Z,102905.72
2022-10-11T09:19:52.074Z,102906.28
2022-10-11T09:22:42.581Z,102906.03
2022-10-11T09:25:28.503Z,102904.84
2022-10-11T09:28:33.337Z,102909.06
2022-10-11T09:31:00.146Z,102907.13
2022-10-11T09:33:37.053Z,102908.59
2022-10-11T09:36:16.393Z,102906.38
2022-10-11T09:39:06.523Z,102904.38
2022-10-11T09:41:58.901Z,102910.84
2022-10-11T09:44:28.032Z,102912.38
2022-10-11T09:46:56.697Z,102907.84
2022-10-11T09:49:29.295Z,102908.38
2022-10-11T09:51:58.829Z,102913.22
2022-10-11T09:54:44.494Z,102911.28
2022-10-11T09:57:22.044Z,102911.09
2022-10-11T10:00:22.201Z,102912.41
2022-10-11T10:02:53.647Z,102904.25
2022-10-11T10:05:21.927Z,102898.94
2022-10-11T10:08:09.361Z,102914.47
2022-10-11T10:10:59.900Z,102911.28
2022-10-11T10:13:55.013Z,102896.34
2022-10-11T10:16:33.755Z,102905.00
2022-10-11T10:19:25.311Z,102908.38
2022-10-11T10:21:54.566Z,102905.97
2022-10-11T10:24:25.596Z,102904.25
2022-10-11T10:27:22.596Z,102901.56
2022-10-11T10:30:07.621Z,102902.25
2022-10-11T10:32:43.760Z,102901.72
2022-10-11T10:35:49.416Z,102909.34
2022-10-11T10:38:29.532Z,102902.16
2022-10-11T10:41:01.345Z,102895.22
2022-10-11T10:43:36.684Z,102896.81
2022-10-11T10:46:40.314Z,102894.78
2022-10-11T10:52:05.957Z,102897.00
2022-10-11T10:54:53.267Z,102884.47
2022-10-11T10:57:25.250Z,102892.69
2022-10-11T11:00:10.678Z,102884.34
2022-10-11T11:03:01.646Z,102891.00
2022-10-11T11:05:48.317Z,102887.38
2022-10-11T11:08:37.474Z,102881.56
2022-10-11T11:11:21.490Z,102886.44
2022-10-11T11:14:04.004Z,102878.09
2022-10-11T11:16:53.907Z,102877.69
2022-10-11T11:19:23.093Z,102872.50
2022-10-11T11:22:27.088Z,102871.00
2022-10-11T11:25:12.652Z,102874.94
2022-10-11T11:27:57.968Z,102869.13
2022-10-11T11:30:43.557Z,102870.25
2022-10-11T11:33:52.071Z,102861.00
2022-10-11T11:36:26.294Z,102864.75
2022-10-11T11:38:58.619Z,102863.16
2022-10-11T11:41:38.184Z,102872.09
2022-10-11T11:44:30.002Z,102861.78
2022-10-11T11:47:10.605Z,102864.44
2022-10-11T11:49:41.227Z,102869.63
2022-10-11T11:52:14.012Z,102861.78
2022-10-11T11:54:49.589Z,102865.28
2022-10-11T11:57:31.531Z,102860.97
2022-10-11T12:00:15.905Z,102859.19
2022-10-11T12:03:03.594Z,102859.91
2022-10-11T12:05:33.900Z,102856.38
2022-10-11T12:08:07.214Z,102848.50
2022-10-11T12:10:54.471Z,102845.84
2022-10-11T12:13:42.405Z,102843.84
2022-10-11T12:16:12.469Z,102841.09
2022-10-11T12:18:52.586Z,102840.28
2022-10-11T12:21:45.378Z,102831.78
2022-10-11T12:24:23.332Z,102824.28
2022-10-11T12:26:54.797Z,102827.78
2022-10-11T12:29:28.533Z,102820.16
2022-10-11T12:31:58.447Z,102818.13
2022-10-11T12:34:34.255Z,102809.19
2022-10-11T12:37:20.692Z,102811.50
2022-10-11T12:39:58.324Z,102807.56
2022-10-11T12:42:33.900Z,102804.53
2022-10-11T12:45:12.996Z,102802.31
2022-10-11T12:48:01.430Z,102803.50
2022-10-11T12:50:54.672Z,102807.91
2022-10-11T12:53:42.787Z,102806.28
2022-10-11T12:56:14.162Z,102812.81
2022-10-11T12:58:46.383Z,102802.09
2022-10-11T13:01:17.501Z,102799.47
2022-10-11T13:03:52.989Z,102801.59
2022-10-11T13:06:26.882Z,102795.19
2022-10-11T13:09:17.407Z,102796.00
2022-10-11T13:11:56.062Z,102799.69
2022-10-11T13:14:25.716Z,102797.03
2022-10-11T13:17:14.973Z,102793.94
2022-10-11T13:22:20.499Z,102792.97
2022-10-11T13:24:47.073Z,102788.00
2022-10-11T13:27:22.966Z,102803.22
2022-10-11T13:29:51.227Z,102794.66
2022-10-11T13:32:23.787Z,102796.19
2022-10-11T13:37:25.742Z,102785.81
2022-10-11T13:39:54.030Z,102785.47
2022-10-11T13:42:27.662Z,102784.09
2022-10-11T13:44:54.355Z,102787.03
2022-10-11T13:47:26.728Z,102791.59
2022-10-11T13:50:15.448Z,102787.41
2022-10-11T13:52:56.097Z,102788.59
2022-10-11T13:55:29.469Z,102789.63
2022-10-11T13:57:58.325Z,102783.66
2022-10-11T14:00:29.567Z,102783.66
2022-10-11T14:03:19.087Z,102785.56
2022-10-11T14:05:57.576Z,102783.03
2022-10-11T14:08:42.314Z,102777.63
2022-10-11T14:11:11.542Z,102781.03
2022-10-11T14:13:46.786Z,102773.81
2022-10-11T14:16:29.042Z,102778.13
2022-10-11T14:18:58.365Z,102768.50
2022-10-11T14:21:30.763Z,102770.53
2022-10-11T14:24:05.790Z,102771.19
2022-10-11T14:26:35.510Z,102769.00
2022-10-11T14:29:06.918Z,102772.97
2022-10-11T14:31:36.781Z,102771.47
2022-10-11T14:34:05.834Z,102769.38
2022-10-11T14:36:32.391Z,102766.53
2022-10-11T14:38:58.811Z,102764.53
2022-10-11T14:41:25.264Z,102761.47
2022-10-11T14:43:51.802Z,102773.25
2022-10-11T14:46:26.692Z,102768.75
2022-10-11T14:48:56.321Z,102763.72
2022-10-11T14:51:28.183Z,102761.03
2022-10-11T14:53:54.722Z,102768.00
2022-10-11T14:56:21.933Z,102769.69
2022-10-11T14:58:48.963Z,102767.22
2022-10-11T15:01:17.211Z,102771.72
2022-10-11T15:03:43.827Z,102770.13
2022-10-11T15:06:22.738Z,102770.44
2022-10-11T15:08:49.271Z,102765.91
2022-10-11T15:11:18.190Z,102762.25
2022-10-11T15:13:45.856Z,102761.47
2022-10-11T15:16:14.901Z,102760.94
2022-10-11T15:18:41.952Z,102763.50
2022-10-11T15:21:13.992Z,102758.75
2022-10-11T15:23:40.413Z,102759.38
2022-10-11T15:26:07.071Z,102753.78
2022-10-11T15:28:33.986Z,102754.28
2022-10-11T15:31:00.708Z,102746.69
2022-10-11T15:33:27.214Z,102750.47
2022-10-11T15:35:53.673Z,102755.06
2022-10-11T15:38:24.143Z,102753.41
2022-10-11T15:40:51.608Z,102744.78
2022-10-11T15:43:24.213Z,102744.81
2022-10-11T15:45:51.488Z,102750.78
2022-10-11T15:48:20.523Z,102747.47
2022-10-11T15:50:47.486Z,102744.06
2022-10-11T15:53:15.238Z,102740.78
2022-10-11T15:55:44.792Z,102739.34
2022-10-11T15:58:15.481Z,102731.72
2022-10-11T16:00:43.031Z,102734.44
2022-10-11T16:03:12.089Z,102733.84
2022-10-11T16:05:38.983Z,102729.66
2022-10-11T16:08:05.522Z,102726.38
2022-10-11T16:10:32.326Z,102729.25
2022-10-11T16:12:58.891Z,102736.53
2022-10-11T16:15:25.333Z,102733.28
2022-10-11T16:17:51.900Z,102737.22
2022-10-11T16:20:22.291Z,102734.88
2022-10-11T16:22:49.685Z,102731.81
2022-10-11T16:25:17.059Z,102746.06
2022-10-11T16:27:44.191Z,102743.84
2022-10-11T16:30:15.452Z,102740.63
2022-10-11T16:32:42.042Z,102738.31
2022-10-11T16:35:09.077Z,102739.50
2022-10-11T16:37:36.293Z,102741.63
2022-10-11T16:40:03.270Z,102746.34
2022-10-11T16:42:29.697Z,102745.00
2022-10-11T16:44:56.548Z,102740.19
2022-10-11T16:47:23.008Z,102746.59
2022-10-11T16:49:49.617Z,102757.38
2022-10-11T16:52:16.419Z,102758.56
2022-10-11T16:54:44.765Z,102753.59
2022-10-11T16:57:12.384Z,102753.88
2022-10-11T16:59:39.411Z,102754.97
2022-10-11T17:02:07.170Z,102750.75
2022-10-11T17:04:33.901Z,102755.28
2022-10-11T17:07:00.534Z,102752.88
2022-10-11T17:09:26.981Z,102753.84
2022-10-11T17:11:53.517Z,102754.78
2022-10-11T17:14:21.694Z,102754.84
2022-10-11T17:16:48.194Z,102756.66
2022-10-11T17:19:15.822Z,102755.03
2022-10-11T17:21:42.841Z,102760.50
2022-10-11T17:24:09.479Z,102756.28
2022-10-11T17:26:35.968Z,102764.25
2022-10-11T17:29:02.864Z,102760.88
2022-10-11T17:31:30.107Z,102761.97
2022-10-11T17:34:00.599Z,102769.16
2022-10-11T17:36:34.700Z,102765.72
2022-10-11T17:39:04.660Z,102762.38
2022-10-11T17:41:32.336Z,102772.00
2022-10-11T17:43:59.560Z,102766.88
2022-10-11T17:46:27.662Z,102767.03
2022-10-11T17:48:55.570Z,102774.94
2022-10-11T17:51:22.550Z,102764.53
2022-10-11T17:53:50.906Z,102765.44
2022-10-11T17:56:25.265Z,102762.84
2022-10-11T17:58:55.991Z,102764.69
2022-10-11T18:01:25.621Z,102768.31
2022-10-11T18:03:57.606Z,102766.72
2022-10-11T18:06:26.753Z,102763.28
2022-10-11T18:08:53.224Z,102769.53
2022-10-11T18:11:20.883Z,102766.25
2022-10-11T18:13:49.074Z,102762.94
2022-10-11T18:16:19.287Z,102767.38
2022-10-11T18:18:45.899Z,102762.31
2022-10-11T18:21:13.111Z,102761.53
2022-10-11T18:23:40.247Z,102767.72
2022-10-11T18:26:29.383Z,102765.28
2022-10-11T18:28:56.812Z,102765.44
2022-10-11T18:31:27.378Z,102766.53
2022-10-11T18:33:54.902Z,102768.44
2022-10-11T18:36:24.051Z,102767.59
2022-10-11T18:38:54.989Z,102766.88
2022-10-11T18:41:24.178Z,102769.53
2022-10-11T18:43:53.699Z,102764.31
2022-10-11T18:46:21.419Z,102764.38
2022-10-11T18:48:51.532Z,102761.91
2022-10-11T18:51:48.979Z,102762.06
2022-10-11T18:54:20.044Z,102755.31
2022-10-11T18:56:47.780Z,102755.50
2022-10-11T18:59:14.600Z,102755.63
2022-10-11T19:01:44.157Z,102757.44
2022-10-11T19:04:12.954Z,102761.94
2022-10-11T19:06:43.155Z,102755.97
2022-10-11T19:09:17.578Z,102757.88
2022-10-11T19:11:45.265Z,102749.34
2022-10-11T19:14:15.134Z,102752.88
2022-10-11T19:16:45.459Z,102756.47
2022-10-11T19:19:12.884Z,102760.91
2022-10-11T19:21:39.747Z,102761.06
2022-10-11T19:24:06.704Z,102755.09
2022-10-11T19:26:36.791Z,102755.16
2022-10-11T19:29:08.081Z,102751.00
2022-10-11T19:31:37.262Z,102747.63
2022-10-11T19:34:03.778Z,102752.19
2022-10-11T19:36:35.522Z,102751.44
2022-10-11T19:39:03.972Z,102753.28
2022-10-11T19:41:30.418Z,102743.88
2022-10-11T19:43:58.236Z,102743.94
2022-10-11T19:46:50.348Z,102756.16
2022-10-11T19:49:13.966Z,102745.91
2022-10-11T19:51:40.394Z,102751.22
2022-10-11T19:54:16.390Z,102750.47
2022-10-11T19:56:44.484Z,102738.44
2022-10-11T19:59:12.382Z,102747.97
2022-10-11T20:01:40.078Z,102742.91
2022-10-11T20:04:09.038Z,102739.50
2022-10-11T20:06:39.086Z,102743.94
2022-10-11T20:09:28.421Z,102751.03
2022-10-11T20:11:55.805Z,102747.56
2022-10-11T20:14:22.378Z,102729.47
2022-10-11T20:16:50.193Z,102739.03
2022-10-11T20:19:17.132Z,102748.69
2022-10-11T20:21:43.971Z,102753.03
2022-10-11T20:24:10.403Z,102753.16
2022-10-11T20:26:36.839Z,102751.53
2022-10-11T20:29:03.412Z,102754.19
2022-10-11T20:31:32.989Z,102752.56
2022-10-11T20:34:02.129Z,102751.81
2022-10-11T20:36:30.129Z,102751.81
2022-10-11T20:38:58.466Z,102753.63
2022-10-11T20:41:28.334Z,102752.00
2022-10-11T20:43:56.799Z,102758.09
2022-10-11T20:46:25.470Z,102752.16
2022-10-11T20:49:00.411Z,102747.81
2022-10-11T20:51:29.431Z,102752.22
2022-10-11T20:53:56.433Z,102758.38
2022-10-11T20:56:23.124Z,102746.28
2022-10-11T20:58:56.453Z,102752.41
2022-10-11T21:01:29.082Z,102751.66
2022-10-11T21:03:57.698Z,102747.41
2022-10-11T21:06:24.317Z,102744.88
2022-10-11T21:08:50.861Z,102745.75
2022-10-11T21:11:17.319Z,102744.13
2022-10-11T21:13:43.803Z,102745.84
2022-10-11T21:16:15.163Z,102748.56
2022-10-11T21:18:41.715Z,102750.38
2022-10-11T21:21:10.814Z,102746.06
2022-10-11T21:23:37.614Z,102753.06
2022-10-11T21:26:06.498Z,102749.63
2022-10-11T21:28:33.074Z,102747.97
2022-10-11T21:31:10.127Z,102748.88
2022-10-11T21:33:37.514Z,102746.38
2022-10-11T21:36:09.431Z,102755.09
2022-10-11T21:38:36.717Z,102744.72
2022-10-11T21:41:08.461Z,102755.97
2022-10-11T21:43:36.102Z,102753.38
2022-10-11T21:46:15.939Z,102749.94
2022-10-11T21:48:42.617Z,102761.22
2022-10-11T21:53:46.117Z,102759.47
2022-10-11T21:56:12.585Z,102762.03
2022-10-11T21:58:39.062Z,102759.38
2022-10-11T22:01:06.045Z,102758.47
2022-10-11T22:03:32.571Z,102759.28
2022-10-11T22:06:02.467Z,102753.22
2022-10-11T22:08:29.536Z,102753.19
2022-10-11T22:10:58.777Z,102753.13
2022-10-11T22:13:26.922Z,102752.16
2022-10-11T22:15:56.185Z,102755.63
2022-10-11T22:18:23.582Z,102756.47
2022-10-11T22:20:50.757Z,102747.78
2022-10-11T22:23:18.957Z,102743.41
2022-10-11T22:25:45.953Z,102744.22
2022-10-11T22:28:12.676Z,102747.72
2022-10-11T22:30:39.181Z,102745.13
2022-10-11T22:33:05.578Z,102748.63
2022-10-11T22:35:37.230Z,102747.03
2022-10-11T22:38:06.155Z,102753.97
2022-10-11T22:40:32.765Z,102744.38
2022-10-11T22:42:59.154Z,102740.97
2022-10-11T22:45:25.561Z,102733.22
2022-10-11T22:47:51.966Z,102748.88
2022-10-11T22:50:18.362Z,102744.69
2022-10-11T22:52:44.777Z,102746.38
2022-10-11T22:55:12.579Z,102742.94
2022-10-11T22:57:40.555Z,102748.13
2022-10-11T23:00:07.700Z,102744.63
2022-10-11T23:02:34.222Z,102748.13
2022-10-11T23:05:00.626Z,102741.19
2022-10-11T23:07:27.027Z,102741.28
2022-10-11T23:09:53.416Z,102745.59
2022-10-11T23:12:19.840Z,102746.53
2022-10-11T23:14:46.243Z,102739.59
2022-10-11T23:17:12.657Z,102738.72
2022-10-11T23:19:39.150Z,102733.53
2022-10-11T23:22:05.579Z,102731.91
2022-10-11T23:24:32.005Z,102731.13
2022-10-11T23:26:58.453Z,102726.84
2022-10-11T23:29:24.887Z,102726.03
2022-10-11T23:31:51.644Z,102726.06
2022-10-11T23:34:18.049Z,102723.47
2022-10-11T23:36:44.454Z,102726.06
2022-10-11T23:39:11.171Z,102726.97
2022-10-11T23:41:37.807Z,102722.66
2022-10-11T23:44:04.322Z,102718.38
2022-10-11T23:46:30.783Z,102720.13
2022-10-11T23:48:57.236Z,102728.78
2022-10-11T23:51:23.667Z,102723.66
2022-10-11T23:53:50.214Z,102722.00
2022-10-11T23:56:16.798Z,102726.38
2022-10-11T23:58:43.172Z,102724.69
